IGO732I VOBL-VOGO
Flight info
| Callsign | IGO732I |
|---|---|
| Flight time | 0h 29m |
| Altitude | 36000 |
| Route | GUNIM8A GUNIM DCT GONAB GONAB2A |
| Aircraft | A320/M-SDE3FGHIRWY/LB1 |
Departure
| Time | 2026-05-07 07:27 |
|---|---|
| Airport | Kempegowda International Airport Bengaluru (VOBL) |
Arrival
| Time | 2026-05-07 07:57 |
|---|---|
| Airport | Goa Dabolim International Airport (VOGO) |
| Time | Latitude | Longitude | Altitude | Speed | Heading |
|---|---|---|---|---|---|
| 2026-05-07 06:56 | 13.20181 | 77.71077 | 2947 ft | 0 kts | 179° |
| 2026-05-07 07:12 | 13.20196 | 77.71077 | 2940 ft | 4 kts | 179° |
| 2026-05-07 07:13 | 13.20222 | 77.71081 | 2940 ft | 4 kts | 209° |
| 2026-05-07 07:13 | 13.20239 | 77.71098 | 2945 ft | 4 kts | 259° |
| 2026-05-07 07:13 | 13.20240 | 77.71111 | 2939 ft | 1 kts | 270° |
| 2026-05-07 07:16 | 13.20240 | 77.71109 | 2938 ft | 3 kts | 270° |
| 2026-05-07 07:16 | 13.20240 | 77.71056 | 2951 ft | 11 kts | 270° |
| 2026-05-07 07:16 | 13.20240 | 77.70959 | 2953 ft | 16 kts | 270° |
| 2026-05-07 07:17 | 13.20241 | 77.70827 | 2956 ft | 20 kts | 270° |
| 2026-05-07 07:17 | 13.20242 | 77.70683 | 2954 ft | 21 kts | 270° |
| 2026-05-07 07:17 | 13.20243 | 77.70528 | 2963 ft | 22 kts | 270° |
| 2026-05-07 07:17 | 13.20250 | 77.70413 | 2965 ft | 12 kts | 294° |
| 2026-05-07 07:18 | 13.20335 | 77.70390 | 2957 ft | 15 kts | 0° |
| 2026-05-07 07:18 | 13.20435 | 77.70392 | 2957 ft | 15 kts | 1° |
| 2026-05-07 07:18 | 13.20530 | 77.70354 | 2967 ft | 16 kts | 288° |
| 2026-05-07 07:18 | 13.20532 | 77.70232 | 2969 ft | 18 kts | 270° |
| 2026-05-07 07:19 | 13.20531 | 77.70099 | 2972 ft | 20 kts | 270° |
| 2026-05-07 07:19 | 13.20534 | 77.69953 | 2975 ft | 21 kts | 271° |
| 2026-05-07 07:19 | 13.20536 | 77.69796 | 2979 ft | 23 kts | 270° |
| 2026-05-07 07:19 | 13.20536 | 77.69633 | 2982 ft | 23 kts | 271° |
| 2026-05-07 07:20 | 13.20538 | 77.69465 | 2986 ft | 24 kts | 270° |
| 2026-05-07 07:20 | 13.20540 | 77.69288 | 2990 ft | 25 kts | 270° |
| 2026-05-07 07:20 | 13.20541 | 77.69122 | 2994 ft | 21 kts | 270° |
| 2026-05-07 07:20 | 13.20542 | 77.68994 | 2996 ft | 16 kts | 270° |
| 2026-05-07 07:21 | 13.20543 | 77.68875 | 2999 ft | 17 kts | 270° |
| 2026-05-07 07:21 | 13.20543 | 77.68765 | 3002 ft | 13 kts | 270° |
| 2026-05-07 07:21 | 13.20544 | 77.68683 | 3004 ft | 7 kts | 270° |
| 2026-05-07 07:21 | 13.20544 | 77.68663 | 3007 ft | 0 kts | 272° |
| 2026-05-07 07:23 | 13.20545 | 77.68653 | 3005 ft | 3 kts | 272° |
| 2026-05-07 07:23 | 13.20562 | 77.68621 | 3005 ft | 7 kts | 328° |
| 2026-05-07 07:23 | 13.20603 | 77.68616 | 3006 ft | 0 kts | 1° |
| 2026-05-07 07:24 | 13.20614 | 77.68617 | 3006 ft | 3 kts | 1° |
| 2026-05-07 07:25 | 13.20717 | 77.68659 | 3005 ft | 9 kts | 73° |
| 2026-05-07 07:25 | 13.20718 | 77.68677 | 3004 ft | 0 kts | 90° |
| 2026-05-07 07:26 | 13.20718 | 77.68709 | 3004 ft | 25 kts | 90° |
| 2026-05-07 07:26 | 13.20714 | 77.69162 | 2994 ft | 98 kts | 90° |
| 2026-05-07 07:27 | 13.20707 | 77.70063 | 2973 ft | 151 kts | 90° |
| 2026-05-07 07:27 | 13.20698 | 77.71268 | 3070 ft | 184 kts | 90° |
| 2026-05-07 07:27 | 13.20930 | 77.72570 | 3721 ft | 188 kts | 66° |
| 2026-05-07 07:27 | 13.21562 | 77.73758 | 4334 ft | 197 kts | 59° |
| 2026-05-07 07:28 | 13.22292 | 77.75049 | 4632 ft | 221 kts | 60° |
| 2026-05-07 07:28 | 13.23091 | 77.76498 | 4974 ft | 246 kts | 60° |
| 2026-05-07 07:28 | 13.23971 | 77.78108 | 5497 ft | 268 kts | 60° |
| 2026-05-07 07:28 | 13.24896 | 77.79810 | 6355 ft | 276 kts | 60° |
| 2026-05-07 07:29 | 13.25840 | 77.81542 | 7298 ft | 281 kts | 59° |
| 2026-05-07 07:29 | 13.27157 | 77.83016 | 8175 ft | 285 kts | 30° |
| 2026-05-07 07:29 | 13.29050 | 77.83593 | 9041 ft | 288 kts | 4° |
| 2026-05-07 07:29 | 13.31062 | 77.83642 | 9920 ft | 291 kts | 353° |
| 2026-05-07 07:30 | 13.33030 | 77.83107 | 10663 ft | 300 kts | 336° |
| 2026-05-07 07:30 | 13.34923 | 77.82027 | 10987 ft | 322 kts | 328° |
| 2026-05-07 07:30 | 13.36876 | 77.80828 | 11596 ft | 331 kts | 329° |
| 2026-05-07 07:30 | 13.38886 | 77.79636 | 12346 ft | 336 kts | 330° |
| 2026-05-07 07:31 | 13.40933 | 77.78446 | 13091 ft | 340 kts | 330° |
| 2026-05-07 07:31 | 13.43006 | 77.77248 | 13817 ft | 344 kts | 330° |
| 2026-05-07 07:31 | 13.45101 | 77.76036 | 14524 ft | 348 kts | 330° |
| 2026-05-07 07:31 | 13.47220 | 77.74807 | 15206 ft | 351 kts | 330° |
| 2026-05-07 07:32 | 13.49347 | 77.73541 | 15861 ft | 355 kts | 326° |
| 2026-05-07 07:32 | 13.51243 | 77.71908 | 16485 ft | 359 kts | 312° |
| 2026-05-07 07:32 | 13.52722 | 77.69837 | 17119 ft | 362 kts | 298° |
| 2026-05-07 07:32 | 13.53687 | 77.67437 | 17741 ft | 365 kts | 285° |
| 2026-05-07 07:33 | 13.54009 | 77.65736 | 18153 ft | 367 kts | 277° |
| 2026-05-07 07:33 | 13.54402 | 77.62269 | 18994 ft | 371 kts | 276° |
| 2026-05-07 07:33 | 13.54703 | 77.59623 | 19616 ft | 374 kts | 276° |
| 2026-05-07 07:33 | 13.55009 | 77.56956 | 20219 ft | 378 kts | 277° |
| 2026-05-07 07:34 | 13.55322 | 77.54264 | 20802 ft | 381 kts | 277° |
| 2026-05-07 07:34 | 13.55636 | 77.51552 | 21355 ft | 384 kts | 277° |
| 2026-05-07 07:34 | 13.55850 | 77.49702 | 21713 ft | 386 kts | 277° |
| 2026-05-07 07:34 | 13.56164 | 77.46953 | 22212 ft | 389 kts | 276° |
| 2026-05-07 07:35 | 13.56470 | 77.44217 | 22721 ft | 392 kts | 276° |
| 2026-05-07 07:35 | 13.56778 | 77.41416 | 23220 ft | 395 kts | 276° |
| 2026-05-07 07:35 | 13.57084 | 77.38597 | 23712 ft | 398 kts | 276° |
| 2026-05-07 07:35 | 13.57391 | 77.35754 | 24190 ft | 401 kts | 276° |
| 2026-05-07 07:36 | 13.57702 | 77.32894 | 24655 ft | 404 kts | 276° |
| 2026-05-07 07:36 | 13.58018 | 77.30012 | 25113 ft | 407 kts | 276° |
| 2026-05-07 07:36 | 13.58337 | 77.27106 | 25561 ft | 410 kts | 276° |
| 2026-05-07 07:36 | 13.58658 | 77.24183 | 25995 ft | 413 kts | 276° |
| 2026-05-07 07:37 | 13.58981 | 77.21239 | 26419 ft | 416 kts | 276° |
| 2026-05-07 07:37 | 13.59306 | 77.18271 | 26839 ft | 419 kts | 276° |
| 2026-05-07 07:37 | 13.59631 | 77.15280 | 27237 ft | 422 kts | 276° |
| 2026-05-07 07:37 | 13.59956 | 77.12264 | 27627 ft | 426 kts | 276° |
| 2026-05-07 07:38 | 13.60282 | 77.09240 | 28038 ft | 428 kts | 276° |
| 2026-05-07 07:38 | 13.60612 | 77.06192 | 28450 ft | 430 kts | 276° |
| 2026-05-07 07:38 | 13.60941 | 77.03130 | 28836 ft | 432 kts | 276° |
| 2026-05-07 07:38 | 13.61271 | 77.00046 | 29229 ft | 435 kts | 276° |
| 2026-05-07 07:39 | 13.61608 | 76.96953 | 29619 ft | 437 kts | 276° |
| 2026-05-07 07:39 | 13.61948 | 76.93839 | 30005 ft | 440 kts | 276° |
| 2026-05-07 07:39 | 13.62287 | 76.90705 | 30379 ft | 442 kts | 276° |
| 2026-05-07 07:39 | 13.62625 | 76.87556 | 30740 ft | 445 kts | 276° |
| 2026-05-07 07:40 | 13.63612 | 76.78338 | 31710 ft | 452 kts | 276° |
| 2026-05-07 07:40 | 13.64987 | 76.65550 | 33561 ft | 448 kts | 276° |
| 2026-05-07 07:40 | 13.68946 | 76.53516 | 35300 ft | 444 kts | 292° |
| 2026-05-07 07:40 | 13.72800 | 76.43766 | 35992 ft | 446 kts | 292° |
| 2026-05-07 07:41 | 13.73939 | 76.40882 | 36009 ft | 439 kts | 292° |
| 2026-05-07 07:41 | 13.76245 | 76.35076 | 36008 ft | 437 kts | 292° |
| 2026-05-07 07:42 | 13.78558 | 76.29291 | 36010 ft | 437 kts | 292° |
| 2026-05-07 07:42 | 13.86247 | 76.09958 | 36010 ft | 437 kts | 292° |
| 2026-05-07 07:43 | 13.95475 | 75.86728 | 36020 ft | 439 kts | 292° |
| 2026-05-07 07:43 | 14.04677 | 75.63435 | 36030 ft | 438 kts | 292° |
| 2026-05-07 07:43 | 14.09699 | 75.52051 | 36009 ft | 437 kts | 306° |
| 2026-05-07 07:44 | 14.17108 | 75.42341 | 35837 ft | 440 kts | 307° |
| 2026-05-07 07:44 | 14.24790 | 75.32141 | 33545 ft | 441 kts | 308° |
| 2026-05-07 07:44 | 14.29188 | 75.26327 | 32331 ft | 434 kts | 308° |
| 2026-05-07 07:44 | 14.31031 | 75.23890 | 31908 ft | 428 kts | 308° |
| 2026-05-07 07:45 | 14.32859 | 75.21476 | 31442 ft | 424 kts | 308° |
| 2026-05-07 07:45 | 14.37945 | 75.14738 | 30120 ft | 414 kts | 308° |
| 2026-05-07 07:45 | 14.44877 | 75.05544 | 28473 ft | 397 kts | 308° |
| 2026-05-07 07:45 | 14.51556 | 74.96683 | 26870 ft | 385 kts | 308° |
| 2026-05-07 07:46 | 14.58046 | 74.88052 | 25191 ft | 375 kts | 308° |
| 2026-05-07 07:46 | 14.64359 | 74.79670 | 23454 ft | 366 kts | 308° |
| 2026-05-07 07:46 | 14.70472 | 74.71502 | 21731 ft | 355 kts | 307° |
| 2026-05-07 07:46 | 14.76343 | 74.63470 | 20038 ft | 346 kts | 307° |
| 2026-05-07 07:47 | 14.82084 | 74.55647 | 18361 ft | 336 kts | 307° |
| 2026-05-07 07:47 | 14.87602 | 74.48127 | 16756 ft | 329 kts | 307° |
| 2026-05-07 07:47 | 14.93058 | 74.40679 | 15179 ft | 321 kts | 307° |
| 2026-05-07 07:47 | 14.98390 | 74.33376 | 13662 ft | 315 kts | 307° |
| 2026-05-07 07:48 | 15.04039 | 74.26616 | 12109 ft | 310 kts | 330° |
| 2026-05-07 07:48 | 15.12489 | 74.24650 | 10602 ft | 303 kts | 350° |
| 2026-05-07 07:48 | 15.22595 | 74.22911 | 9089 ft | 286 kts | 350° |
| 2026-05-07 07:48 | 15.28632 | 74.21883 | 7948 ft | 286 kts | 350° |
| 2026-05-07 07:49 | 15.30593 | 74.21549 | 7635 ft | 284 kts | 350° |
| 2026-05-07 07:49 | 15.32533 | 74.21217 | 7340 ft | 281 kts | 350° |
| 2026-05-07 07:49 | 15.34457 | 74.20888 | 6924 ft | 283 kts | 350° |
| 2026-05-07 07:49 | 15.36365 | 74.20401 | 6596 ft | 281 kts | 337° |
| 2026-05-07 07:50 | 15.38012 | 74.19392 | 6442 ft | 271 kts | 320° |
| 2026-05-07 07:50 | 15.39439 | 74.18168 | 6345 ft | 261 kts | 320° |
| 2026-05-07 07:50 | 15.40810 | 74.17001 | 6286 ft | 250 kts | 320° |
| 2026-05-07 07:50 | 15.42127 | 74.15883 | 6235 ft | 241 kts | 320° |
| 2026-05-07 07:51 | 15.43302 | 74.14659 | 6147 ft | 239 kts | 300° |
| 2026-05-07 07:51 | 15.43776 | 74.13030 | 5930 ft | 240 kts | 270° |
| 2026-05-07 07:51 | 15.43525 | 74.11316 | 5577 ft | 242 kts | 258° |
| 2026-05-07 07:51 | 15.43189 | 74.09629 | 5238 ft | 243 kts | 258° |
| 2026-05-07 07:52 | 15.42845 | 74.07888 | 4893 ft | 244 kts | 258° |
| 2026-05-07 07:52 | 15.42512 | 74.06186 | 4586 ft | 243 kts | 258° |
| 2026-05-07 07:52 | 15.42177 | 74.04473 | 4269 ft | 242 kts | 258° |
| 2026-05-07 07:52 | 15.41845 | 74.02766 | 3931 ft | 240 kts | 258° |
| 2026-05-07 07:53 | 15.41523 | 74.01096 | 3570 ft | 233 kts | 258° |
| 2026-05-07 07:53 | 15.41212 | 73.99478 | 3244 ft | 224 kts | 258° |
| 2026-05-07 07:53 | 15.40912 | 73.97920 | 2893 ft | 218 kts | 259° |
| 2026-05-07 07:53 | 15.40615 | 73.96382 | 2511 ft | 214 kts | 258° |
| 2026-05-07 07:54 | 15.40336 | 73.94934 | 2214 ft | 197 kts | 258° |
| 2026-05-07 07:54 | 15.40080 | 73.93606 | 1968 ft | 180 kts | 259° |
| 2026-05-07 07:54 | 15.39852 | 73.92425 | 1773 ft | 154 kts | 258° |
| 2026-05-07 07:54 | 15.39648 | 73.91384 | 1503 ft | 142 kts | 258° |
| 2026-05-07 07:55 | 15.39457 | 73.90404 | 1270 ft | 136 kts | 259° |
| 2026-05-07 07:55 | 15.39277 | 73.89445 | 1074 ft | 135 kts | 259° |
| 2026-05-07 07:55 | 15.39096 | 73.88493 | 920 ft | 135 kts | 259° |
| 2026-05-07 07:55 | 15.38913 | 73.87543 | 755 ft | 134 kts | 259° |
| 2026-05-07 07:56 | 15.38732 | 73.86594 | 604 ft | 134 kts | 258° |
| 2026-05-07 07:56 | 15.38546 | 73.85649 | 408 ft | 134 kts | 259° |
| 2026-05-07 07:56 | 15.38361 | 73.84702 | 222 ft | 133 kts | 258° |
| 2026-05-07 07:56 | 15.38192 | 73.83841 | 176 ft | 103 kts | 258° |
| 2026-05-07 07:57 | 15.38083 | 73.83289 | 161 ft | 54 kts | 259° |
| 2026-05-07 07:57 | 15.38058 | 73.83069 | 158 ft | 13 kts | 308° |
| 2026-05-07 07:57 | 15.38148 | 73.83049 | 157 ft | 15 kts | 345° |
| 2026-05-07 07:57 | 15.38235 | 73.83029 | 157 ft | 8 kts | 348° |
| 2026-05-07 07:58 | 15.38282 | 73.83041 | 157 ft | 4 kts | 44° |
| 2026-05-07 07:58 | 15.38296 | 73.83054 | 158 ft | 0 kts | 40° |